Time;durP1;ratioP1;P1;durP2;ratioP2;P2;SDS_P1;SDS_P2;PMS_P1;PMS_P2;Temp;Humidity;BMP_temperature;BMP_pressure;BME280_temperature;BME280_humidity;BME280_pressure;Samples;Min_cycle;Max_cycle;Signal;HPM_P1;HPM_P2
2023/01/25 00:00:10;;;;;;;8.38;5.30;;;;;;;-0.41;77.09;100864.31;7341725;19;20014;-72
2023/01/25 00:02:35;;;;;;;9.90;6.13;;;;;;;-0.35;76.97;100868.66;7344522;19;20051;-74
2023/01/25 00:04:59;;;;;;;11.18;4.95;;;;;;;-0.34;76.78;100869.53;7344369;19;20015;-77
2023/01/25 00:07:24;;;;;;;12.52;5.60;;;;;;;-0.31;76.61;100861.63;7345965;19;20023;-78
2023/01/25 00:09:48;;;;;;;11.43;5.47;;;;;;;-0.39;76.38;100859.94;7346603;19;20475;-76
2023/01/25 00:12:13;;;;;;;8.30;5.00;;;;;;;-0.36;76.33;100848.59;7345456;19;20614;-79
2023/01/25 00:14:38;;;;;;;9.13;4.88;;;;;;;-0.28;76.64;100856.38;7344530;19;20010;-79
2023/01/25 00:17:02;;;;;;;11.18;6.07;;;;;;;-0.30;76.08;100852.88;7346511;19;20025;-81
2023/01/25 00:19:27;;;;;;;8.70;5.40;;;;;;;-0.32;75.73;100857.25;7345429;19;20005;-79
2023/01/25 00:21:52;;;;;;;10.43;5.32;;;;;;;-0.34;75.52;100865.16;7347381;19;20039;-78
2023/01/25 00:24:16;;;;;;;7.90;5.22;;;;;;;-0.39;75.50;100849.47;7343100;19;20026;-78
2023/01/25 00:26:45;;;;;;;9.65;5.55;;;;;;;-0.41;75.52;100842.50;7342268;19;20023;-77
2023/01/25 00:29:12;;;;;;;8.65;5.03;;;;;;;-0.42;75.76;100841.63;7341132;19;20002;-81
2023/01/25 00:31:46;;;;;;;9.27;5.00;;;;;;;-0.39;76.04;100840.75;7343355;19;20023;-76
2023/01/25 00:34:23;;;;;;;8.88;5.57;;;;;;;-0.35;76.40;100831.97;7342309;19;20345;-76
2023/01/25 00:36:55;;;;;;;10.15;5.68;;;;;;;-0.36;76.16;100830.25;7340757;19;20014;-78
2023/01/25 00:39:20;;;;;;;10.35;5.53;;;;;;;-0.38;76.31;100835.50;7342544;19;20018;-76
2023/01/25 00:41:45;;;;;;;8.85;5.53;;;;;;;-0.37;76.39;100826.75;7346248;19;20025;-79
2023/01/25 00:44:10;;;;;;;11.93;5.93;;;;;;;-0.38;76.17;100821.53;7342801;19;20007;-79
2023/01/25 00:46:34;;;;;;;11.40;5.53;;;;;;;-0.42;76.26;100814.56;7348536;19;20460;-79
2023/01/25 00:48:59;;;;;;;8.65;5.10;;;;;;;-0.38;76.36;100835.50;7355522;19;20448;-77
2023/01/25 00:51:24;;;;;;;9.02;5.20;;;;;;;-0.31;76.48;100817.94;7351624;19;20018;-79
2023/01/25 00:53:49;;;;;;;8.15;5.28;;;;;;;-0.29;76.14;100825.81;7345790;19;20016;-76
2023/01/25 00:56:14;;;;;;;7.28;4.93;;;;;;;-0.32;76.27;100812.72;7344779;19;20006;-78
2023/01/25 00:58:40;;;;;;;11.98;6.63;;;;;;;-0.36;76.13;100809.28;7344451;19;20159;-77
2023/01/25 01:01:08;;;;;;;12.32;5.65;;;;;;;-0.33;76.24;100813.59;7342914;19;20010;-73
2023/01/25 01:03:32;;;;;;;9.80;6.30;;;;;;;-0.27;76.19;100803.09;7341277;19;20082;-75
2023/01/25 01:06:03;;;;;;;10.27;5.57;;;;;;;-0.25;76.34;100806.56;7336843;19;20010;-75
2023/01/25 01:08:28;;;;;;;9.20;5.28;;;;;;;-0.30;76.05;100803.09;7338190;19;20077;-76
2023/01/25 01:11:00;;;;;;;8.63;5.25;;;;;;;-0.28;76.19;100801.34;7342481;19;20031;-76
2023/01/25 01:13:25;;;;;;;9.35;5.00;;;;;;;-0.21;76.30;100808.25;7340543;19;20014;-67
2023/01/25 01:15:50;;;;;;;10.60;5.50;;;;;;;-0.25;76.00;100812.69;7342363;19;20010;-68
2023/01/25 01:18:15;;;;;;;13.07;5.57;;;;;;;-0.27;75.57;100797.84;7341114;19;20472;-68
2023/01/25 01:20:39;;;;;;;8.32;5.40;;;;;;;-0.35;75.49;100800.53;7345736;19;20504;-68
2023/01/25 01:23:04;;;;;;;9.70;5.80;;;;;;;-0.39;75.39;100790.97;7342306;19;20018;-68
2023/01/25 01:25:29;;;;;;;11.48;5.32;;;;;;;-0.37;76.00;100792.69;7338798;19;20025;-68
2023/01/25 01:27:53;;;;;;;8.48;5.32;;;;;;;-0.42;75.98;100799.72;7344671;19;20021;-69
2023/01/25 01:30:18;;;;;;;9.95;4.90;;;;;;;-0.33;76.05;100792.63;7347749;19;20007;-69
2023/01/25 01:32:42;;;;;;;6.82;5.20;;;;;;;-0.29;76.11;100786.50;7347744;19;20355;-70
2023/01/25 01:35:07;;;;;;;10.13;4.65;;;;;;;-0.30;75.70;100784.75;7348174;19;20010;-70
2023/01/25 01:37:32;;;;;;;9.77;5.55;;;;;;;-0.32;75.51;100769.06;7347453;19;20014;-69
2023/01/25 01:39:56;;;;;;;11.90;5.30;;;;;;;-0.38;75.53;100769.13;7349165;19;20009;-69
2023/01/25 01:42:21;;;;;;;9.43;5.40;;;;;;;-0.43;75.46;100771.78;7347436;19;20014;-69
2023/01/25 01:44:49;;;;;;;10.10;5.68;;;;;;;-0.51;75.66;100772.72;7346825;19;20114;-69
2023/01/25 01:47:24;;;;;;;9.60;5.53;;;;;;;-0.55;75.99;100771.88;7347506;19;20015;-71
2023/01/25 01:49:58;;;;;;;9.05;5.68;;;;;;;-0.56;76.15;100775.38;7347988;19;20024;-69
2023/01/25 01:52:29;;;;;;;14.30;6.57;;;;;;;-0.68;76.62;100778.13;7346631;19;20368;-68
2023/01/25 01:55:02;;;;;;;12.02;6.18;;;;;;;-0.73;77.10;100766.78;7347845;19;20014;-71
2023/01/25 01:57:35;;;;;;;10.25;6.68;;;;;;;-0.69;77.58;100758.06;7347271;19;20006;-71
2023/01/25 02:00:25;;;;;;;12.40;6.65;;;;;;;-0.69;77.47;100749.31;7347156;19;20023;-73
2023/01/25 02:02:50;;;;;;;11.32;6.05;;;;;;;-0.72;77.78;100755.44;7345906;19;20023;-72
2023/01/25 02:05:31;;;;;;;11.77;7.13;;;;;;;-0.72;78.04;100752.81;7346432;19;20015;-69
2023/01/25 02:07:56;;;;;;;15.93;7.40;;;;;;;-0.82;78.32;100756.41;7346148;19;20014;-74
2023/01/25 02:10:25;;;;;;;12.75;6.55;;;;;;;-0.75;78.50;100760.69;7346499;19;20026;-72
2023/01/25 02:12:55;;;;;;;12.82;6.35;;;;;;;-0.69;78.30;100746.72;7348617;19;20421;-71
2023/01/25 02:15:21;;;;;;;10.32;6.70;;;;;;;-0.83;78.47;100752.91;7346621;19;20410;-76
2023/01/25 02:17:47;;;;;;;11.18;6.20;;;;;;;-0.78;78.47;100760.72;7348889;19;20773;-73
2023/01/25 02:20:34;;;;;;;11.13;6.70;;;;;;;-0.81;78.58;100768.63;7345726;19;20013;-75
2023/01/25 02:23:09;;;;;;;14.57;7.65;;;;;;;-0.79;78.70;100767.69;7347609;19;20340;-73
2023/01/25 02:25:34;;;;;;;13.63;7.32;;;;;;;-0.85;78.65;100759.91;7346883;19;20023;-72
2023/01/25 02:28:32;;;;;;;10.85;6.30;;;;;;;-0.70;78.66;100764.16;7351955;19;20118;-72
2023/01/25 02:30:57;;;;;;;10.50;6.07;;;;;;;-0.77;78.57;100762.44;7350168;19;20010;-76
2023/01/25 02:33:26;;;;;;;10.55;6.65;;;;;;;-0.73;78.73;100758.94;7346637;19;20597;-68
2023/01/25 02:36:23;;;;;;;11.48;6.38;;;;;;;-0.65;78.68;100757.13;7345940;19;20057;-67
2023/01/25 02:38:56;;;;;;;12.63;6.57;;;;;;;-0.65;78.55;100764.09;7342124;19;20014;-73
2023/01/25 02:41:28;;;;;;;15.23;8.00;;;;;;;-0.65;78.50;100758.88;7343122;19;20022;-69
2023/01/25 02:43:54;;;;;;;11.98;6.10;;;;;;;-0.63;78.61;100757.97;7340936;19;20510;-71
2023/01/25 02:46:26;;;;;;;12.65;7.43;;;;;;;-0.63;78.34;100768.47;7342706;19;20406;-71
2023/01/25 02:48:51;;;;;;;18.05;7.18;;;;;;;-0.74;78.51;100768.53;7344344;19;20137;-75
2023/01/25 02:51:16;;;;;;;16.00;7.18;;;;;;;-0.77;78.78;100772.94;7343524;19;20003;-68
2023/01/25 02:53:40;;;;;;;14.52;7.03;;;;;;;-0.78;79.06;100772.06;7341413;19;20503;-68
2023/01/25 02:56:05;;;;;;;12.13;7.40;;;;;;;-0.75;79.11;100769.41;7342242;19;20014;-73
2023/01/25 02:58:30;;;;;;;13.98;7.15;;;;;;;-0.66;78.88;100765.84;7341872;19;20026;-73
2023/01/25 03:00:56;;;;;;;15.35;8.30;;;;;;;-0.66;78.90;100770.22;7343187;19;20444;-75
2023/01/25 03:03:21;;;;;;;13.50;7.90;;;;;;;-0.63;78.85;100768.47;7343641;19;20022;-75
2023/01/25 03:05:46;;;;;;;12.45;7.07;;;;;;;-0.60;78.90;100767.56;7339579;19;20006;-75
2023/01/25 03:08:10;;;;;;;11.07;6.13;;;;;;;-0.64;78.79;100761.47;7342763;19;20011;-75
2023/01/25 03:10:35;;;;;;;14.45;8.23;;;;;;;-0.58;78.78;100763.19;7342949;19;20002;-75
2023/01/25 03:12:59;;;;;;;15.30;7.90;;;;;;;-0.54;78.71;100778.84;7344916;19;20014;-76
2023/01/25 03:15:24;;;;;;;15.32;7.10;;;;;;;-0.57;78.95;100757.94;7344814;19;20011;-76
2023/01/25 03:17:49;;;;;;;12.27;6.93;;;;;;;-0.60;78.79;100757.97;7344613;19;20415;-75
2023/01/25 03:20:15;;;;;;;17.02;8.10;;;;;;;-0.58;78.73;100753.59;7345789;19;20090;-76
2023/01/25 03:22:40;;;;;;;14.15;7.85;;;;;;;-0.60;78.49;100744.00;7344838;19;20028;-75
2023/01/25 03:25:05;;;;;;;13.77;6.78;;;;;;;-0.62;78.68;100743.13;7345455;19;20031;-75
2023/01/25 03:27:32;;;;;;;11.65;5.82;;;;;;;-0.54;78.85;100746.56;7343635;19;20025;-71
2023/01/25 03:30:05;;;;;;;13.13;6.55;;;;;;;-0.48;78.90;100739.53;7344532;19;20017;-70
2023/01/25 03:32:31;;;;;;;16.52;7.00;;;;;;;-0.44;78.92;100733.34;7342830;19;20014;-70
2023/01/25 03:35:01;;;;;;;13.77;6.63;;;;;;;-0.47;78.72;100728.16;7345150;19;20353;-71
2023/01/25 03:37:30;;;;;;;10.38;5.95;;;;;;;-0.52;78.52;100745.66;7354360;19;20014;-69
2023/01/25 03:39:56;;;;;;;12.55;6.65;;;;;;;-0.54;78.45;100731.72;7348857;19;20101;-70
2023/01/25 03:42:21;;;;;;;17.20;8.35;;;;;;;-0.69;78.59;100736.22;7342894;19;20024;-70
2023/01/25 03:44:49;;;;;;;11.32;6.60;;;;;;;-0.71;78.84;100738.00;7342773;19;20011;-70
2023/01/25 03:47:15;;;;;;;16.90;8.00;;;;;;;-0.79;79.20;100730.22;7343430;19;20019;-70
2023/01/25 03:49:40;;;;;;;13.98;7.25;;;;;;;-0.84;79.39;100731.97;7341859;19;20117;-69
2023/01/25 03:52:07;;;;;;;14.48;8.50;;;;;;;-0.80;79.75;100741.56;7340732;19;20476;-69
2023/01/25 03:54:36;;;;;;;13.73;7.30;;;;;;;-0.77;79.57;100741.50;7342021;19;20011;-70
2023/01/25 03:57:01;;;;;;;13.20;6.68;;;;;;;-0.68;79.69;100744.09;7343405;19;20032;-68
2023/01/25 03:59:26;;;;;;;9.52;6.80;;;;;;;-0.63;79.56;100742.28;7344895;19;20010;-69
2023/01/25 04:01:52;;;;;;;12.48;7.20;;;;;;;-0.56;79.32;100737.84;7343086;19;20456;-70
2023/01/25 04:04:17;;;;;;;12.55;6.57;;;;;;;-0.48;79.14;100750.00;7339859;19;20464;-71
2023/01/25 04:06:43;;;;;;;11.90;5.97;;;;;;;-0.43;78.80;100744.72;7342684;19;20413;-71
2023/01/25 04:09:08;;;;;;;13.20;6.72;;;;;;;-0.41;78.78;100733.34;7343560;19;20513;-71
2023/01/25 04:11:37;;;;;;;13.18;6.55;;;;;;;-0.36;78.62;100741.16;7341771;19;20007;-69
2023/01/25 04:14:03;;;;;;;11.70;7.38;;;;;;;-0.42;78.15;100754.31;7342264;19;20090;-68
2023/01/25 04:16:35;;;;;;;10.68;5.80;;;;;;;-0.43;78.07;100740.34;7343567;19;20483;-69
2023/01/25 04:19:18;;;;;;;12.55;6.60;;;;;;;-0.44;78.00;100732.50;7342368;19;20021;-71
2023/01/25 04:21:44;;;;;;;13.98;5.45;;;;;;;-0.43;77.72;100731.59;7345936;19;20010;-70
2023/01/25 04:24:09;;;;;;;10.73;6.07;;;;;;;-0.44;77.54;100728.13;7348952;19;20017;-69
2023/01/25 04:26:36;;;;;;;11.05;5.95;;;;;;;-0.50;77.13;100730.81;7352396;19;20007;-68
2023/01/25 04:29:03;;;;;;;10.10;7.13;;;;;;;-0.48;77.27;100741.28;7343504;19;20019;-67
2023/01/25 04:31:28;;;;;;;9.23;5.53;;;;;;;-0.45;77.25;100729.00;7344200;19;20006;-69
2023/01/25 04:33:55;;;;;;;10.18;5.22;;;;;;;-0.40;77.12;100729.84;7342942;19;20365;-68
2023/01/25 04:36:20;;;;;;;7.03;5.32;;;;;;;-0.41;76.73;100735.97;7342732;19;20019;-69
2023/01/25 04:38:46;;;;;;;10.32;5.80;;;;;;;-0.49;76.39;100736.91;7343001;19;20379;-68
2023/01/25 04:41:10;;;;;;;9.40;5.90;;;;;;;-0.63;76.38;100742.28;7341495;19;20644;-69
2023/01/25 04:43:35;;;;;;;8.07;5.32;;;;;;;-0.62;76.37;100738.78;7338777;19;20465;-68
2023/01/25 04:46:05;;;;;;;7.97;5.40;;;;;;;-0.54;76.79;100743.94;7340083;19;20682;-67
2023/01/25 04:48:31;;;;;;;8.20;5.40;;;;;;;-0.53;76.93;100749.16;7341149;19;20006;-69
2023/01/25 04:50:59;;;;;;;8.10;5.50;;;;;;;-0.54;76.56;100747.41;7341338;19;20807;-68
2023/01/25 04:53:24;;;;;;;9.30;6.10;;;;;;;-0.65;76.10;100740.53;7341700;19;20022;-68
2023/01/25 04:55:50;;;;;;;8.45;4.97;;;;;;;-0.59;76.19;100751.84;7339763;19;20021;-69
2023/01/25 04:58:15;;;;;;;23.90;6.47;;;;;;;-0.52;76.60;100748.28;7341524;19;20023;-68
2023/01/25 05:00:41;;;;;;;10.05;5.63;;;;;;;-0.55;76.23;100755.28;7342189;19;20350;-69
2023/01/25 05:03:05;;;;;;;8.05;5.57;;;;;;;-0.54;76.02;100757.03;7346763;19;20109;-66
2023/01/25 05:05:31;;;;;;;11.52;5.75;;;;;;;-0.59;75.94;100749.22;7346698;19;20045;-68
2023/01/25 05:07:57;;;;;;;14.38;5.50;;;;;;;-0.65;76.07;100751.88;7347514;19;20021;-66
2023/01/25 05:10:22;;;;;;;11.38;6.68;;;;;;;-0.61;76.07;100744.88;7350354;19;20066;-67
2023/01/25 05:13:09;;;;;;;7.68;4.72;;;;;;;-0.54;76.36;100742.19;7351149;19;20033;-68
2023/01/25 05:15:36;;;;;;;11.15;5.70;;;;;;;-0.59;75.87;100743.13;7349375;19;20757;-67
2023/01/25 05:18:01;;;;;;;7.45;4.55;;;;;;;-0.54;76.05;100747.41;7349887;19;20011;-69
2023/01/25 05:20:26;;;;;;;9.80;5.85;;;;;;;-0.62;75.46;100749.25;7348842;19;20011;-67
2023/01/25 05:22:51;;;;;;;10.10;6.25;;;;;;;-0.79;75.16;100753.78;7350962;19;20033;-68
2023/01/25 05:28:03;;;;;;;9.50;4.70;;;;;;;-0.75;75.09;100745.84;7350518;19;20376;-67
2023/01/25 05:30:48;;;;;;;7.72;4.55;;;;;;;-0.73;74.98;100745.84;7349662;19;20107;-68
2023/01/25 05:33:22;;;;;;;7.38;4.70;;;;;;;-0.85;75.04;100751.19;7349072;19;20019;-68
2023/01/25 05:35:47;;;;;;;8.02;4.68;;;;;;;-0.85;75.05;100757.28;7347366;19;20042;-67
2023/01/25 05:38:12;;;;;;;7.20;4.35;;;;;;;-0.90;74.83;100753.81;7348056;19;20010;-67
2023/01/25 05:40:36;;;;;;;8.35;4.28;;;;;;;-0.82;75.21;100762.50;7348139;19;20010;-68
2023/01/25 05:43:01;;;;;;;5.63;3.92;;;;;;;-0.77;74.92;100759.84;7345248;19;20049;-68
2023/01/25 05:45:29;;;;;;;6.38;4.15;;;;;;;-0.71;74.90;100754.56;7347208;19;20013;-66
2023/01/25 05:47:55;;;;;;;7.20;4.22;;;;;;;-0.67;74.68;100744.91;7347200;19;20011;-67
2023/01/25 05:50:20;;;;;;;7.28;5.00;;;;;;;-0.71;74.27;100746.72;7348118;19;19999;-67
2023/01/25 05:52:52;;;;;;;8.80;5.60;;;;;;;-0.76;74.53;100731.03;7346384;19;20018;-68
2023/01/25 05:55:17;;;;;;;8.30;5.28;;;;;;;-0.74;74.62;100736.25;7347617;19;20010;-67
2023/01/25 05:57:42;;;;;;;11.43;4.80;;;;;;;-0.77;74.52;100729.28;7345668;19;20011;-68
2023/01/25 06:00:07;;;;;;;7.70;4.72;;;;;;;-0.83;74.63;100736.34;7347074;19;20015;-66
2023/01/25 06:02:38;;;;;;;7.40;4.90;;;;;;;-0.89;74.86;100738.97;7347071;19;20015;-67
2023/01/25 06:05:03;;;;;;;7.85;4.97;;;;;;;-0.91;75.13;100751.25;7345489;19;20013;-67
2023/01/25 06:07:32;;;;;;;9.07;5.95;;;;;;;-0.89;75.25;100749.44;7351022;19;20037;-67
2023/01/25 06:09:56;;;;;;;7.38;5.07;;;;;;;-0.96;75.05;100748.66;7350451;19;20724;-67
2023/01/25 06:12:21;;;;;;;7.60;4.93;;;;;;;-0.94;75.16;100746.03;7347984;19;20472;-67
2023/01/25 06:14:46;;;;;;;7.38;4.60;;;;;;;-1.01;75.31;100755.66;7347493;19;20010;-66
2023/01/25 06:17:10;;;;;;;8.68;6.00;;;;;;;-1.02;75.75;100750.44;7345812;19;20394;-68
2023/01/25 06:19:59;;;;;;;6.85;4.70;;;;;;;-0.97;75.59;100757.38;7347992;19;20010;-67
2023/01/25 06:22:30;;;;;;;6.55;4.65;;;;;;;-1.01;75.38;100749.53;7347651;19;20028;-67
2023/01/25 06:24:55;;;;;;;7.53;5.40;;;;;;;-1.15;75.67;100747.03;7348111;19;20074;-67
2023/01/25 06:27:19;;;;;;;6.93;4.40;;;;;;;-1.06;75.80;100753.94;7347317;19;20026;-68
2023/01/25 06:29:44;;;;;;;8.05;4.60;;;;;;;-1.05;75.95;100750.47;7346778;19;20006;-67
2023/01/25 06:32:08;;;;;;;9.23;5.07;;;;;;;-1.05;75.95;100737.38;7346589;19;20029;-65
2023/01/25 06:34:33;;;;;;;8.35;4.50;;;;;;;-1.00;75.69;100749.53;7346369;19;20014;-67
2023/01/25 06:36:58;;;;;;;8.68;5.47;;;;;;;-1.15;75.82;100739.19;7346836;19;20473;-66
2023/01/25 06:39:22;;;;;;;8.52;4.78;;;;;;;-1.10;75.93;100742.63;7346452;19;20011;-66
2023/01/25 06:41:47;;;;;;;7.32;4.32;;;;;;;-1.06;75.92;100744.34;7348661;19;20010;-66
2023/01/25 06:44:12;;;;;;;8.27;4.10;;;;;;;-1.02;75.95;100753.06;7343562;19;20019;-67
2023/01/25 06:46:36;;;;;;;6.45;3.90;;;;;;;-1.06;75.68;100748.72;7345492;19;20024;-65
2023/01/25 06:49:01;;;;;;;6.22;4.32;;;;;;;-1.04;75.63;100749.59;7343836;19;20341;-66
2023/01/25 06:51:25;;;;;;;5.28;4.00;;;;;;;-1.02;75.63;100758.31;7346448;19;20011;-66
2023/01/25 06:53:50;;;;;;;6.20;4.00;;;;;;;-0.96;75.71;100756.50;7346205;19;20346;-69
2023/01/25 06:56:20;;;;;;;5.57;4.05;;;;;;;-1.00;75.56;100756.50;7348203;19;20334;-69
2023/01/25 06:58:45;;;;;;;5.68;4.10;;;;;;;-1.07;75.45;100752.22;7346011;19;20412;-69
2023/01/25 07:01:19;;;;;;;7.28;3.90;;;;;;;-0.87;75.69;100761.66;7344023;19;20328;-67
2023/01/25 07:03:55;;;;;;;7.07;4.35;;;;;;;-0.86;75.33;100757.28;7345974;19;20505;-69
2023/01/25 07:06:21;;;;;;;5.80;3.60;;;;;;;-0.80;75.36;100759.88;7343790;19;20024;-67
2023/01/25 07:08:46;;;;;;;5.30;4.10;;;;;;;-0.73;75.13;100753.72;7346893;19;20021;-68
2023/01/25 07:11:12;;;;;;;8.48;4.82;;;;;;;-0.78;75.10;100763.34;7344944;19;20011;-70
2023/01/25 07:13:37;;;;;;;8.25;4.50;;;;;;;-0.74;75.15;100762.44;7345733;19;20042;-67
2023/01/25 07:16:07;;;;;;;6.72;4.47;;;;;;;-0.63;75.33;100757.97;7345207;19;20015;-69
2023/01/25 07:18:33;;;;;;;7.03;4.68;;;;;;;-0.67;75.09;100744.91;7344807;19;20023;-68
2023/01/25 07:21:06;;;;;;;6.72;4.75;;;;;;;-0.77;75.14;100754.59;7344785;19;20019;-68
2023/01/25 07:23:32;;;;;;;5.93;3.90;;;;;;;-0.71;75.28;100738.84;7343691;19;20157;-67
2023/01/25 07:25:57;;;;;;;7.53;4.55;;;;;;;-0.73;75.37;100748.47;7341589;19;20093;-66
2023/01/25 07:28:22;;;;;;;7.60;4.85;;;;;;;-0.79;75.30;100733.66;7347751;19;20032;-68
2023/01/25 07:30:48;;;;;;;7.95;4.70;;;;;;;-0.83;75.23;100750.28;7345591;19;20010;-66
2023/01/25 07:33:12;;;;;;;8.20;4.80;;;;;;;-0.71;75.48;100738.00;7344274;19;20018;-66
2023/01/25 07:35:37;;;;;;;8.80;5.32;;;;;;;-0.66;75.47;100741.41;7344314;19;20014;-67
2023/01/25 07:38:02;;;;;;;8.18;5.05;;;;;;;-0.67;75.02;100737.94;7345396;19;20461;-66
2023/01/25 07:40:27;;;;;;;8.63;5.47;;;;;;;-0.70;74.93;100734.50;7345013;19;20019;-66
2023/01/25 07:42:52;;;;;;;7.85;5.15;;;;;;;-0.59;75.09;100741.38;7343030;19;20022;-67
2023/01/25 07:45:17;;;;;;;7.53;5.13;;;;;;;-0.60;74.74;100742.25;7343993;19;20026;-68
2023/01/25 07:47:42;;;;;;;9.40;6.38;;;;;;;-0.67;75.08;100737.06;7343832;19;20022;-68
2023/01/25 07:50:07;;;;;;;6.40;4.82;;;;;;;-0.66;75.39;100734.44;7344835;19;20462;-67
2023/01/25 07:52:32;;;;;;;8.80;5.22;;;;;;;-0.63;75.33;100728.31;7341686;19;20319;-68
2023/01/25 07:54:56;;;;;;;9.15;5.32;;;;;;;-0.56;75.53;100722.13;7344307;19;20357;-68
2023/01/25 07:57:21;;;;;;;9.60;4.93;;;;;;;-0.54;75.11;100728.22;7343945;19;20039;-67
2023/01/25 07:59:46;;;;;;;7.80;5.43;;;;;;;-0.53;75.32;100730.81;7343691;19;20022;-68
2023/01/25 08:02:11;;;;;;;9.52;5.65;;;;;;;-0.50;75.24;100725.56;7343360;19;20026;-67
2023/01/25 08:04:36;;;;;;;10.07;6.38;;;;;;;-0.42;75.22;100725.50;7342451;19;20011;-67
2023/01/25 08:07:00;;;;;;;9.00;6.03;;;;;;;-0.35;75.15;100729.81;7342663;19;20007;-68
2023/01/25 08:09:25;;;;;;;8.57;5.43;;;;;;;-0.32;74.73;100715.78;7340946;19;20041;-68
2023/01/25 08:11:49;;;;;;;12.80;5.85;;;;;;;-0.30;74.66;100729.75;7343930;19;20473;-67
2023/01/25 08:14:14;;;;;;;12.75;6.68;;;;;;;-0.21;74.70;100725.28;7342498;19;20010;-69
2023/01/25 08:16:38;;;;;;;9.25;5.55;;;;;;;-0.20;74.48;100726.13;7344051;19;20014;-68
2023/01/25 08:19:04;;;;;;;9.38;6.40;;;;;;;-0.23;74.60;100727.06;7342918;19;20018;-68
2023/01/25 08:21:31;;;;;;;11.60;7.45;;;;;;;-0.25;74.55;100734.06;7343016;19;20006;-66
2023/01/25 08:23:57;;;;;;;9.20;5.82;;;;;;;-0.26;74.75;100727.09;7342590;19;20082;-68
2023/01/25 08:26:22;;;;;;;9.70;6.22;;;;;;;-0.28;74.55;100722.75;7342966;19;20018;-67
2023/01/25 08:28:47;;;;;;;9.63;6.35;;;;;;;-0.22;74.92;100720.03;7342382;19;20017;-67
2023/01/25 08:31:17;;;;;;;10.95;6.85;;;;;;;-0.19;74.85;100722.63;7342747;19;20019;-67
2023/01/25 08:33:43;;;;;;;8.73;5.95;;;;;;;-0.25;74.43;100727.97;7341038;19;20070;-68
2023/01/25 08:36:09;;;;;;;9.35;6.13;;;;;;;-0.39;74.31;100728.09;7343315;19;20473;-69
2023/01/25 08:38:34;;;;;;;11.45;6.07;;;;;;;-0.35;74.54;100714.09;7351203;19;20010;-67
2023/01/25 08:41:13;;;;;;;7.35;4.88;;;;;;;-0.20;74.82;100716.53;7348810;19;20014;-67
2023/01/25 08:43:38;;;;;;;9.95;5.47;;;;;;;-0.26;74.30;100707.88;7348504;19;20011;-68
2023/01/25 08:46:02;;;;;;;8.55;4.78;;;;;;;-0.21;74.17;100714.78;7346862;19;20027;-68
2023/01/25 08:48:27;;;;;;;8.10;5.28;;;;;;;-0.19;74.51;100709.53;7351252;19;20041;-69
2023/01/25 08:50:52;;;;;;;7.68;5.20;;;;;;;-0.20;74.19;100705.19;7349270;19;20025;-68
2023/01/25 08:53:17;;;;;;;7.93;4.82;;;;;;;-0.20;73.91;100705.19;7348914;19;20062;-68
2023/01/25 08:55:42;;;;;;;6.15;4.38;;;;;;;-0.15;73.83;100699.00;7350629;19;20017;-67
2023/01/25 08:58:09;;;;;;;6.13;4.07;;;;;;;-0.29;73.66;100686.94;7348276;19;20022;-67
2023/01/25 09:00:34;;;;;;;5.75;3.83;;;;;;;-0.30;73.46;100687.81;7350659;19;20332;-67
2023/01/25 09:02:59;;;;;;;7.03;4.07;;;;;;;-0.26;73.50;100685.16;7349216;19;20428;-66
2023/01/25 09:05:23;;;;;;;7.22;5.45;;;;;;;-0.27;73.27;100682.56;7348374;19;20013;-67
2023/01/25 09:07:48;;;;;;;9.05;5.25;;;;;;;-0.26;73.10;100684.28;7347939;19;20011;-67
2023/01/25 09:10:12;;;;;;;7.00;4.95;;;;;;;-0.24;73.29;100677.28;7348522;19;20012;-69
2023/01/25 09:12:37;;;;;;;6.82;4.32;;;;;;;-0.24;73.32;100669.44;7351117;19;20015;-69
2023/01/25 09:15:02;;;;;;;7.93;4.85;;;;;;;-0.17;73.43;100669.34;7346529;19;20073;-69
2023/01/25 09:17:28;;;;;;;6.15;4.28;;;;;;;-0.13;73.11;100678.03;7349225;19;20039;-69
2023/01/25 09:19:53;;;;;;;6.00;4.40;;;;;;;-0.06;73.25;100671.81;7350959;19;20038;-69
2023/01/25 09:22:17;;;;;;;6.85;4.88;;;;;;;-0.14;72.91;100661.44;7347638;19;20018;-69
2023/01/25 09:24:42;;;;;;;7.45;5.05;;;;;;;-0.08;73.22;100668.34;7348138;19;20010;-69
2023/01/25 09:27:06;;;;;;;7.55;4.78;;;;;;;-0.04;73.34;100656.97;7349027;19;20014;-67
2023/01/25 09:29:31;;;;;;;8.05;5.22;;;;;;;-0.05;73.20;100658.72;7349304;19;20461;-68
2023/01/25 09:31:56;;;;;;;8.88;5.45;;;;;;;-0.09;73.08;100654.38;7349282;19;20014;-68
2023/01/25 09:34:41;;;;;;;14.27;5.80;;;;;;;-0.11;73.35;100648.28;7348655;19;20345;-69
2023/01/25 09:37:06;;;;;;;9.52;5.80;;;;;;;-0.28;73.37;100645.00;7346363;19;20338;-68
2023/01/25 09:39:31;;;;;;;9.70;6.25;;;;;;;-0.34;73.93;100649.47;7347334;19;20054;-67
2023/01/25 09:42:17;;;;;;;8.27;5.32;;;;;;;-0.35;74.27;100645.09;7348494;19;20043;-67
2023/01/25 09:44:51;;;;;;;9.38;6.50;;;;;;;-0.46;74.72;100643.47;7345870;19;20036;-69
2023/01/25 09:47:30;;;;;;;9.93;4.75;;;;;;;-0.48;74.59;100636.50;7351373;19;20043;-69
2023/01/25 09:50:35;;;;;;;11.02;6.60;;;;;;;-0.55;75.44;100625.22;7348079;19;20021;-69
2023/01/25 09:53:18;;;;;;;9.63;5.45;;;;;;;-0.61;75.50;100619.19;7349455;19;20010;-68
2023/01/25 09:55:43;;;;;;;6.30;3.75;;;;;;;-0.56;75.42;100617.38;7349755;19;20022;-67
2023/01/25 09:58:13;;;;;;;7.93;4.60;;;;;;;-0.51;75.05;100611.22;7347743;19;20480;-69
2023/01/25 10:00:44;;;;;;;8.75;4.85;;;;;;;-0.53;74.96;100606.88;7350522;19;20068;-67
2023/01/25 10:03:33;;;;;;;10.50;6.32;;;;;;;-0.60;75.21;100608.69;7345838;19;20014;-67
2023/01/25 10:06:01;;;;;;;11.13;6.20;;;;;;;-0.64;75.32;100603.50;7347893;19;20804;-68
2023/01/25 10:08:28;;;;;;;7.75;4.70;;;;;;;-0.48;75.08;100605.94;7348602;19;20026;-68
2023/01/25 10:11:12;;;;;;;8.80;5.25;;;;;;;-0.58;75.16;100599.06;7349581;19;20030;-68
2023/01/25 10:13:37;;;;;;;10.23;5.70;;;;;;;-0.64;75.17;100593.03;7345602;19;20007;-67
2023/01/25 10:16:10;;;;;;;8.55;5.32;;;;;;;-0.64;75.11;100578.19;7346394;19;20021;-67
2023/01/25 10:18:56;;;;;;;6.30;4.30;;;;;;;-0.58;75.13;100582.50;7347532;19;20015;-67
2023/01/25 10:21:27;;;;;;;9.00;6.22;;;;;;;-0.72;74.97;100580.03;7348419;19;20011;-67
2023/01/25 10:24:25;;;;;;;8.25;4.93;;;;;;;-0.68;75.05;100581.75;7345082;19;20025;-67
2023/01/25 10:26:58;;;;;;;10.68;5.75;;;;;;;-0.71;75.05;100586.13;7348214;19;20361;-68
2023/01/25 10:29:36;;;;;;;8.77;5.28;;;;;;;-0.73;75.14;100583.53;7347853;19;20089;-67
2023/01/25 10:32:31;;;;;;;7.65;4.63;;;;;;;-0.63;74.85;100585.16;7345955;19;20015;-68
2023/01/25 10:34:59;;;;;;;7.63;5.13;;;;;;;-0.74;74.73;100594.88;7346320;19;20015;-68
2023/01/25 10:37:28;;;;;;;8.45;4.60;;;;;;;-0.71;74.45;100594.84;7348099;19;20050;-69
2023/01/25 10:40:00;;;;;;;8.35;5.68;;;;;;;-0.75;73.90;100593.13;7347785;19;20018;-73
2023/01/25 10:42:28;;;;;;;9.82;6.80;;;;;;;-0.75;73.73;100591.38;7350129;19;20067;-68
2023/01/25 10:44:53;;;;;;;9.07;5.35;;;;;;;-0.59;73.71;100580.75;7345625;19;20022;-69
2023/01/25 10:47:26;;;;;;;12.88;5.55;;;;;;;-0.71;72.94;100579.16;7345858;19;20010;-68
2023/01/25 10:49:54;;;;;;;6.68;4.60;;;;;;;-0.69;72.94;100569.53;7348402;19;20018;-67
2023/01/25 10:52:25;;;;;;;7.68;4.50;;;;;;;-0.48;73.11;100574.50;7355011;19;20007;-67
2023/01/25 10:55:21;;;;;;;11.40;5.60;;;;;;;-0.34;72.91;100570.88;7357728;19;20015;-68
2023/01/25 10:57:49;;;;;;;10.35;5.63;;;;;;;-0.54;72.55;100564.09;7356364;19;20357;-68
2023/01/25 11:00:32;;;;;;;8.30;4.50;;;;;;;-0.31;72.76;100563.81;7354719;19;20070;-68
2023/01/25 11:02:57;;;;;;;7.53;4.78;;;;;;;-0.46;72.53;100561.41;7363983;19;20018;-67
2023/01/25 11:05:34;;;;;;;8.57;5.05;;;;;;;-0.57;72.31;100542.34;7363123;19;20505;-69
2023/01/25 11:08:19;;;;;;;8.90;5.75;;;;;;;-0.63;72.51;100539.78;7365815;19;20326;-67
2023/01/25 11:10:45;;;;;;;11.98;5.50;;;;;;;-0.68;72.45;100547.69;7361916;19;20568;-68
2023/01/25 11:13:12;;;;;;;8.93;5.50;;;;;;;-0.51;72.38;100544.88;7360199;19;20011;-69
2023/01/25 11:15:37;;;;;;;8.43;5.60;;;;;;;-0.38;72.13;100539.47;7356785;19;20540;-67
2023/01/25 11:18:05;;;;;;;8.80;5.30;;;;;;;-0.19;71.23;100539.22;7349954;19;20488;-68
2023/01/25 11:20:30;;;;;;;7.97;5.50;;;;;;;-0.31;70.07;100541.97;7346589;19;20010;-70
2023/01/25 11:22:56;;;;;;;15.23;5.88;;;;;;;-0.32;70.08;100542.88;7352252;19;20021;-69
2023/01/25 11:25:32;;;;;;;8.93;5.70;;;;;;;-0.17;69.94;100532.19;7343484;19;20031;-69
2023/01/25 11:28:17;;;;;;;11.45;5.60;;;;;;;-0.08;69.38;100526.81;7347828;19;20019;-70